sensor_id;sensor_type;location;lat;lon;timestamp;temperature;humidity
16995;DHT22;8614;48.522;9.206;2022-08-21T00:02:20;15.50;99.90
16995;DHT22;8614;48.522;9.206;2022-08-21T00:04:48;15.40;99.90
16995;DHT22;8614;48.522;9.206;2022-08-21T00:07:16;15.50;99.90
16995;DHT22;8614;48.522;9.206;2022-08-21T00:09:43;15.50;99.90
16995;DHT22;8614;48.522;9.206;2022-08-21T00:12:11;15.40;99.90
16995;DHT22;8614;48.522;9.206;2022-08-21T00:14:38;15.40;99.90
16995;DHT22;8614;48.522;9.206;2022-08-21T00:17:06;15.30;99.90
16995;DHT22;8614;48.522;9.206;2022-08-21T00:19:33;15.30;99.90
16995;DHT22;8614;48.522;9.206;2022-08-21T00:22:00;15.30;99.90
16995;DHT22;8614;48.522;9.206;2022-08-21T00:24:27;15.20;99.90
16995;DHT22;8614;48.522;9.206;2022-08-21T00:26:53;15.20;99.90
16995;DHT22;8614;48.522;9.206;2022-08-21T00:29:20;15.20;99.90
16995;DHT22;8614;48.522;9.206;2022-08-21T00:31:47;15.20;99.90
16995;DHT22;8614;48.522;9.206;2022-08-21T00:34:15;15.20;99.90
16995;DHT22;8614;48.522;9.206;2022-08-21T00:36:42;15.10;99.90
16995;DHT22;8614;48.522;9.206;2022-08-21T00:39:09;15.10;99.90
16995;DHT22;8614;48.522;9.206;2022-08-21T00:41:37;15.10;99.90
16995;DHT22;8614;48.522;9.206;2022-08-21T00:44:06;15.10;99.90
16995;DHT22;8614;48.522;9.206;2022-08-21T00:46:33;15.10;99.90
16995;DHT22;8614;48.522;9.206;2022-08-21T00:49:00;15.10;99.90
16995;DHT22;8614;48.522;9.206;2022-08-21T00:51:35;15.10;99.90
16995;DHT22;8614;48.522;9.206;2022-08-21T00:54:03;15.00;99.90
16995;DHT22;8614;48.522;9.206;2022-08-21T00:56:30;15.00;99.90
16995;DHT22;8614;48.522;9.206;2022-08-21T00:58:57;15.00;99.90
16995;DHT22;8614;48.522;9.206;2022-08-21T01:01:25;15.00;99.90
16995;DHT22;8614;48.522;9.206;2022-08-21T01:03:53;15.00;99.90
16995;DHT22;8614;48.522;9.206;2022-08-21T01:06:20;15.00;99.90
16995;DHT22;8614;48.522;9.206;2022-08-21T01:08:48;15.00;99.90
16995;DHT22;8614;48.522;9.206;2022-08-21T01:11:16;15.00;99.90
16995;DHT22;8614;48.522;9.206;2022-08-21T01:13:43;15.00;99.90
16995;DHT22;8614;48.522;9.206;2022-08-21T01:16:13;14.90;99.90
16995;DHT22;8614;48.522;9.206;2022-08-21T01:18:42;14.90;99.90
16995;DHT22;8614;48.522;9.206;2022-08-21T01:21:12;14.80;99.90
16995;DHT22;8614;48.522;9.206;2022-08-21T01:23:43;14.70;99.90
16995;DHT22;8614;48.522;9.206;2022-08-21T01:26:12;14.70;99.90
16995;DHT22;8614;48.522;9.206;2022-08-21T01:28:43;14.60;99.90
16995;DHT22;8614;48.522;9.206;2022-08-21T01:31:12;14.60;99.90
16995;DHT22;8614;48.522;9.206;2022-08-21T01:33:40;14.50;99.90
16995;DHT22;8614;48.522;9.206;2022-08-21T01:36:07;14.50;99.90
16995;DHT22;8614;48.522;9.206;2022-08-21T01:38:35;14.50;99.90
16995;DHT22;8614;48.522;9.206;2022-08-21T01:41:02;14.40;99.90
16995;DHT22;8614;48.522;9.206;2022-08-21T01:43:29;14.40;99.90
16995;DHT22;8614;48.522;9.206;2022-08-21T01:45:55;14.40;99.90
16995;DHT22;8614;48.522;9.206;2022-08-21T01:48:22;14.40;99.90
16995;DHT22;8614;48.522;9.206;2022-08-21T01:50:49;14.30;99.90
16995;DHT22;8614;48.522;9.206;2022-08-21T01:53:16;14.30;99.90
16995;DHT22;8614;48.522;9.206;2022-08-21T01:55:44;14.30;99.90
16995;DHT22;8614;48.522;9.206;2022-08-21T01:58:11;14.30;99.90
16995;DHT22;8614;48.522;9.206;2022-08-21T02:00:38;14.30;99.90
16995;DHT22;8614;48.522;9.206;2022-08-21T02:03:06;14.20;99.90
16995;DHT22;8614;48.522;9.206;2022-08-21T02:05:33;14.20;99.90
16995;DHT22;8614;48.522;9.206;2022-08-21T02:08:00;14.20;99.90
16995;DHT22;8614;48.522;9.206;2022-08-21T02:10:31;14.20;99.90
16995;DHT22;8614;48.522;9.206;2022-08-21T02:13:00;14.10;99.90
16995;DHT22;8614;48.522;9.206;2022-08-21T02:15:27;14.10;99.90
16995;DHT22;8614;48.522;9.206;2022-08-21T02:17:57;14.10;99.90
16995;DHT22;8614;48.522;9.206;2022-08-21T02:20:27;14.10;99.90
16995;DHT22;8614;48.522;9.206;2022-08-21T02:22:54;14.00;99.90
16995;DHT22;8614;48.522;9.206;2022-08-21T02:25:23;14.10;99.90
16995;DHT22;8614;48.522;9.206;2022-08-21T02:27:50;14.00;99.90
16995;DHT22;8614;48.522;9.206;2022-08-21T02:30:21;14.00;99.90
16995;DHT22;8614;48.522;9.206;2022-08-21T02:32:49;14.00;99.90
16995;DHT22;8614;48.522;9.206;2022-08-21T02:35:16;14.00;99.90
16995;DHT22;8614;48.522;9.206;2022-08-21T02:37:48;14.00;99.90
16995;DHT22;8614;48.522;9.206;2022-08-21T02:40:17;13.90;99.90
16995;DHT22;8614;48.522;9.206;2022-08-21T02:42:44;14.00;99.90
16995;DHT22;8614;48.522;9.206;2022-08-21T02:45:12;14.00;99.90
16995;DHT22;8614;48.522;9.206;2022-08-21T02:47:46;13.90;99.90
16995;DHT22;8614;48.522;9.206;2022-08-21T02:50:13;13.90;99.90
16995;DHT22;8614;48.522;9.206;2022-08-21T02:52:43;13.90;99.90
16995;DHT22;8614;48.522;9.206;2022-08-21T02:55:10;13.90;99.90
16995;DHT22;8614;48.522;9.206;2022-08-21T02:57:37;13.80;99.90
16995;DHT22;8614;48.522;9.206;2022-08-21T03:00:05;13.80;99.90
16995;DHT22;8614;48.522;9.206;2022-08-21T03:02:32;13.80;99.90
16995;DHT22;8614;48.522;9.206;2022-08-21T03:05:01;13.80;99.90
16995;DHT22;8614;48.522;9.206;2022-08-21T03:07:28;13.80;99.90
16995;DHT22;8614;48.522;9.206;2022-08-21T03:09:55;13.80;99.90
16995;DHT22;8614;48.522;9.206;2022-08-21T03:12:22;13.80;99.90
16995;DHT22;8614;48.522;9.206;2022-08-21T03:14:49;13.80;99.90
16995;DHT22;8614;48.522;9.206;2022-08-21T03:17:16;13.70;99.90
16995;DHT22;8614;48.522;9.206;2022-08-21T03:19:43;13.70;99.90
16995;DHT22;8614;48.522;9.206;2022-08-21T03:22:11;13.60;99.90
16995;DHT22;8614;48.522;9.206;2022-08-21T03:24:38;13.50;99.90
16995;DHT22;8614;48.522;9.206;2022-08-21T03:27:04;13.50;99.90
16995;DHT22;8614;48.522;9.206;2022-08-21T03:29:31;13.60;99.90
16995;DHT22;8614;48.522;9.206;2022-08-21T03:31:58;13.60;99.90
16995;DHT22;8614;48.522;9.206;2022-08-21T03:34:25;13.60;99.90
16995;DHT22;8614;48.522;9.206;2022-08-21T03:36:52;13.50;99.90
16995;DHT22;8614;48.522;9.206;2022-08-21T03:39:20;13.50;99.90
16995;DHT22;8614;48.522;9.206;2022-08-21T03:41:47;13.60;99.90
16995;DHT22;8614;48.522;9.206;2022-08-21T03:44:13;13.60;99.90
16995;DHT22;8614;48.522;9.206;2022-08-21T03:46:40;13.60;99.90
16995;DHT22;8614;48.522;9.206;2022-08-21T03:49:07;13.60;99.90
16995;DHT22;8614;48.522;9.206;2022-08-21T03:51:34;13.60;99.90
16995;DHT22;8614;48.522;9.206;2022-08-21T03:54:01;13.60;99.90
16995;DHT22;8614;48.522;9.206;2022-08-21T03:56:29;13.50;99.90
16995;DHT22;8614;48.522;9.206;2022-08-21T03:58:56;13.50;99.90
16995;DHT22;8614;48.522;9.206;2022-08-21T04:01:23;13.50;99.90
16995;DHT22;8614;48.522;9.206;2022-08-21T04:03:50;13.50;99.90
16995;DHT22;8614;48.522;9.206;2022-08-21T04:06:16;13.50;99.90
16995;DHT22;8614;48.522;9.206;2022-08-21T04:08:43;13.50;99.90
16995;DHT22;8614;48.522;9.206;2022-08-21T04:11:10;13.50;99.90
16995;DHT22;8614;48.522;9.206;2022-08-21T04:13:38;13.50;99.90
16995;DHT22;8614;48.522;9.206;2022-08-21T04:16:06;13.50;99.90
16995;DHT22;8614;48.522;9.206;2022-08-21T04:18:33;13.40;99.90
16995;DHT22;8614;48.522;9.206;2022-08-21T04:21:01;13.40;99.90
16995;DHT22;8614;48.522;9.206;2022-08-21T04:23:29;13.40;99.90
16995;DHT22;8614;48.522;9.206;2022-08-21T04:25:56;13.30;99.90
16995;DHT22;8614;48.522;9.206;2022-08-21T04:28:24;13.20;99.90
16995;DHT22;8614;48.522;9.206;2022-08-21T04:30:53;13.20;99.90
16995;DHT22;8614;48.522;9.206;2022-08-21T04:33:21;13.20;99.90
16995;DHT22;8614;48.522;9.206;2022-08-21T04:35:49;13.20;99.90
16995;DHT22;8614;48.522;9.206;2022-08-21T04:38:16;13.20;99.90
16995;DHT22;8614;48.522;9.206;2022-08-21T04:40:43;13.10;99.90
16995;DHT22;8614;48.522;9.206;2022-08-21T04:43:10;13.20;99.90
16995;DHT22;8614;48.522;9.206;2022-08-21T04:45:39;13.20;99.90
16995;DHT22;8614;48.522;9.206;2022-08-21T04:48:09;13.20;99.90
16995;DHT22;8614;48.522;9.206;2022-08-21T04:50:40;13.20;99.90
16995;DHT22;8614;48.522;9.206;2022-08-21T04:53:11;13.10;99.90
16995;DHT22;8614;48.522;9.206;2022-08-21T04:55:40;13.10;99.90
16995;DHT22;8614;48.522;9.206;2022-08-21T04:58:09;13.10;99.90
16995;DHT22;8614;48.522;9.206;2022-08-21T05:00:37;13.10;99.90
16995;DHT22;8614;48.522;9.206;2022-08-21T05:03:06;13.10;99.90
16995;DHT22;8614;48.522;9.206;2022-08-21T05:05:35;13.20;99.90
16995;DHT22;8614;48.522;9.206;2022-08-21T05:08:03;13.10;99.90
16995;DHT22;8614;48.522;9.206;2022-08-21T05:10:30;13.20;99.90
16995;DHT22;8614;48.522;9.206;2022-08-21T05:12:58;13.30;99.90
16995;DHT22;8614;48.522;9.206;2022-08-21T05:15:26;13.30;99.90
16995;DHT22;8614;48.522;9.206;2022-08-21T05:17:52;13.40;99.90
16995;DHT22;8614;48.522;9.206;2022-08-21T05:20:19;13.50;99.90
16995;DHT22;8614;48.522;9.206;2022-08-21T05:22:47;13.60;99.90
16995;DHT22;8614;48.522;9.206;2022-08-21T05:25:14;13.70;99.90
16995;DHT22;8614;48.522;9.206;2022-08-21T05:27:41;13.80;99.90
16995;DHT22;8614;48.522;9.206;2022-08-21T05:30:09;13.90;99.90
16995;DHT22;8614;48.522;9.206;2022-08-21T05:32:36;14.00;99.90
16995;DHT22;8614;48.522;9.206;2022-08-21T05:35:05;14.20;99.90
16995;DHT22;8614;48.522;9.206;2022-08-21T05:37:32;14.30;99.90
16995;DHT22;8614;48.522;9.206;2022-08-21T05:40:02;14.50;99.90
16995;DHT22;8614;48.522;9.206;2022-08-21T05:42:30;14.60;99.90
16995;DHT22;8614;48.522;9.206;2022-08-21T05:44:56;14.80;99.90
16995;DHT22;8614;48.522;9.206;2022-08-21T05:47:23;15.00;99.90
16995;DHT22;8614;48.522;9.206;2022-08-21T05:49:50;15.10;99.90
16995;DHT22;8614;48.522;9.206;2022-08-21T05:52:19;15.30;99.90
16995;DHT22;8614;48.522;9.206;2022-08-21T05:54:46;15.40;99.90
16995;DHT22;8614;48.522;9.206;2022-08-21T05:57:14;15.50;99.90
16995;DHT22;8614;48.522;9.206;2022-08-21T05:59:41;15.60;99.90
16995;DHT22;8614;48.522;9.206;2022-08-21T06:02:07;15.70;99.90
16995;DHT22;8614;48.522;9.206;2022-08-21T06:04:35;15.80;99.90
16995;DHT22;8614;48.522;9.206;2022-08-21T06:07:03;15.90;99.90
16995;DHT22;8614;48.522;9.206;2022-08-21T06:09:30;15.90;99.90
16995;DHT22;8614;48.522;9.206;2022-08-21T06:11:56;16.00;99.90
16995;DHT22;8614;48.522;9.206;2022-08-21T06:14:24;16.10;99.90
16995;DHT22;8614;48.522;9.206;2022-08-21T06:16:51;16.10;99.90
16995;DHT22;8614;48.522;9.206;2022-08-21T06:19:18;16.10;99.90
16995;DHT22;8614;48.522;9.206;2022-08-21T06:21:45;16.20;99.90
16995;DHT22;8614;48.522;9.206;2022-08-21T06:24:12;16.30;99.90
16995;DHT22;8614;48.522;9.206;2022-08-21T06:26:39;16.40;99.90
16995;DHT22;8614;48.522;9.206;2022-08-21T06:29:06;16.50;99.90
16995;DHT22;8614;48.522;9.206;2022-08-21T06:31:39;16.70;99.90
16995;DHT22;8614;48.522;9.206;2022-08-21T06:34:06;16.80;99.90
16995;DHT22;8614;48.522;9.206;2022-08-21T06:36:33;16.90;99.90
16995;DHT22;8614;48.522;9.206;2022-08-21T06:39:00;17.00;99.90
16995;DHT22;8614;48.522;9.206;2022-08-21T06:41:27;17.10;99.90
16995;DHT22;8614;48.522;9.206;2022-08-21T06:43:54;17.20;99.90
16995;DHT22;8614;48.522;9.206;2022-08-21T06:46:22;17.30;99.90
16995;DHT22;8614;48.522;9.206;2022-08-21T06:48:50;17.30;99.90
16995;DHT22;8614;48.522;9.206;2022-08-21T06:51:17;17.40;99.90
16995;DHT22;8614;48.522;9.206;2022-08-21T06:53:45;17.50;99.90
16995;DHT22;8614;48.522;9.206;2022-08-21T06:56:12;17.60;99.90
16995;DHT22;8614;48.522;9.206;2022-08-21T06:58:38;17.60;99.90
16995;DHT22;8614;48.522;9.206;2022-08-21T07:01:05;17.70;99.90
16995;DHT22;8614;48.522;9.206;2022-08-21T07:03:35;17.70;99.90
16995;DHT22;8614;48.522;9.206;2022-08-21T07:06:04;17.80;99.90
16995;DHT22;8614;48.522;9.206;2022-08-21T07:08:31;17.90;99.90
16995;DHT22;8614;48.522;9.206;2022-08-21T07:11:01;17.90;99.90
16995;DHT22;8614;48.522;9.206;2022-08-21T07:13:28;18.00;99.90
16995;DHT22;8614;48.522;9.206;2022-08-21T07:15:56;18.10;99.90
16995;DHT22;8614;48.522;9.206;2022-08-21T07:18:22;18.20;99.90
16995;DHT22;8614;48.522;9.206;2022-08-21T07:20:49;18.40;99.90
16995;DHT22;8614;48.522;9.206;2022-08-21T07:23:21;18.50;99.90
16995;DHT22;8614;48.522;9.206;2022-08-21T07:25:48;18.60;99.90
16995;DHT22;8614;48.522;9.206;2022-08-21T07:28:15;18.90;99.90
16995;DHT22;8614;48.522;9.206;2022-08-21T07:30:42;19.40;99.90
16995;DHT22;8614;48.522;9.206;2022-08-21T07:33:08;20.00;99.90
16995;DHT22;8614;48.522;9.206;2022-08-21T07:35:36;20.50;99.90
16995;DHT22;8614;48.522;9.206;2022-08-21T07:38:02;21.10;99.90
16995;DHT22;8614;48.522;9.206;2022-08-21T07:40:31;21.60;99.90
16995;DHT22;8614;48.522;9.206;2022-08-21T07:42:57;21.90;99.90
16995;DHT22;8614;48.522;9.206;2022-08-21T07:45:24;22.50;99.90
16995;DHT22;8614;48.522;9.206;2022-08-21T07:47:51;22.90;99.90
16995;DHT22;8614;48.522;9.206;2022-08-21T07:50:18;23.40;99.90
16995;DHT22;8614;48.522;9.206;2022-08-21T07:52:46;23.70;99.90
16995;DHT22;8614;48.522;9.206;2022-08-21T07:55:15;24.00;99.90
16995;DHT22;8614;48.522;9.206;2022-08-21T07:57:45;24.20;99.90
16995;DHT22;8614;48.522;9.206;2022-08-21T08:00:15;24.30;99.90
16995;DHT22;8614;48.522;9.206;2022-08-21T08:02:44;24.70;99.90
16995;DHT22;8614;48.522;9.206;2022-08-21T08:05:12;24.80;99.90
16995;DHT22;8614;48.522;9.206;2022-08-21T08:07:39;24.60;99.90
16995;DHT22;8614;48.522;9.206;2022-08-21T08:10:07;24.80;99.90
16995;DHT22;8614;48.522;9.206;2022-08-21T08:12:35;24.90;99.90
16995;DHT22;8614;48.522;9.206;2022-08-21T08:15:05;25.00;99.90
16995;DHT22;8614;48.522;9.206;2022-08-21T08:17:32;25.30;99.90
16995;DHT22;8614;48.522;9.206;2022-08-21T08:19:59;25.40;99.90
16995;DHT22;8614;48.522;9.206;2022-08-21T08:22:27;25.70;99.90
16995;DHT22;8614;48.522;9.206;2022-08-21T08:24:55;25.60;99.90
16995;DHT22;8614;48.522;9.206;2022-08-21T08:27:22;25.70;99.90
16995;DHT22;8614;48.522;9.206;2022-08-21T08:29:50;25.80;99.90
16995;DHT22;8614;48.522;9.206;2022-08-21T08:32:18;25.80;99.90
16995;DHT22;8614;48.522;9.206;2022-08-21T08:34:45;25.90;99.90
16995;DHT22;8614;48.522;9.206;2022-08-21T08:37:14;26.40;99.90
16995;DHT22;8614;48.522;9.206;2022-08-21T08:39:41;26.60;99.90
16995;DHT22;8614;48.522;9.206;2022-08-21T08:42:12;26.90;99.90
16995;DHT22;8614;48.522;9.206;2022-08-21T08:44:40;26.90;99.90
16995;DHT22;8614;48.522;9.206;2022-08-21T08:47:08;26.50;99.90
16995;DHT22;8614;48.522;9.206;2022-08-21T08:49:45;26.70;99.90
16995;DHT22;8614;48.522;9.206;2022-08-21T08:52:19;26.80;99.90
16995;DHT22;8614;48.522;9.206;2022-08-21T08:54:51;27.30;99.90
16995;DHT22;8614;48.522;9.206;2022-08-21T08:57:21;27.30;99.90
16995;DHT22;8614;48.522;9.206;2022-08-21T08:59:51;27.40;99.90
16995;DHT22;8614;48.522;9.206;2022-08-21T09:02:19;27.00;99.90
16995;DHT22;8614;48.522;9.206;2022-08-21T09:04:48;27.20;99.90
16995;DHT22;8614;48.522;9.206;2022-08-21T09:07:22;27.40;99.90
16995;DHT22;8614;48.522;9.206;2022-08-21T09:10:05;27.60;99.90
16995;DHT22;8614;48.522;9.206;2022-08-21T09:12:50;27.50;99.90
16995;DHT22;8614;48.522;9.206;2022-08-21T09:15:24;27.60;99.90
16995;DHT22;8614;48.522;9.206;2022-08-21T09:18:11;27.60;99.90
16995;DHT22;8614;48.522;9.206;2022-08-21T09:20:58;27.80;99.90
16995;DHT22;8614;48.522;9.206;2022-08-21T09:23:34;27.50;99.90
16995;DHT22;8614;48.522;9.206;2022-08-21T09:26:07;27.30;99.90
16995;DHT22;8614;48.522;9.206;2022-08-21T09:28:38;27.70;99.90
16995;DHT22;8614;48.522;9.206;2022-08-21T09:31:08;28.00;99.90
16995;DHT22;8614;48.522;9.206;2022-08-21T09:33:38;28.10;99.90
16995;DHT22;8614;48.522;9.206;2022-08-21T09:36:06;28.10;99.90
16995;DHT22;8614;48.522;9.206;2022-08-21T09:38:35;28.20;99.90
16995;DHT22;8614;48.522;9.206;2022-08-21T09:41:05;28.60;99.90
16995;DHT22;8614;48.522;9.206;2022-08-21T09:43:34;28.30;98.80
16995;DHT22;8614;48.522;9.206;2022-08-21T09:46:07;28.00;98.40
16995;DHT22;8614;48.522;9.206;2022-08-21T09:48:44;28.00;99.50
16995;DHT22;8614;48.522;9.206;2022-08-21T09:51:16;27.80;99.90
16995;DHT22;8614;48.522;9.206;2022-08-21T09:53:46;28.20;99.90
16995;DHT22;8614;48.522;9.206;2022-08-21T09:56:21;28.30;99.90
16995;DHT22;8614;48.522;9.206;2022-08-21T09:59:14;28.40;97.40
16995;DHT22;8614;48.522;9.206;2022-08-21T10:01:43;28.40;98.00
16995;DHT22;8614;48.522;9.206;2022-08-21T10:04:11;28.20;95.90
16995;DHT22;8614;48.522;9.206;2022-08-21T10:06:40;28.20;97.50
16995;DHT22;8614;48.522;9.206;2022-08-21T10:09:09;28.20;97.20
16995;DHT22;8614;48.522;9.206;2022-08-21T10:11:36;27.60;95.60
16995;DHT22;8614;48.522;9.206;2022-08-21T10:14:12;27.60;97.40
16995;DHT22;8614;48.522;9.206;2022-08-21T10:16:49;27.80;98.70
16995;DHT22;8614;48.522;9.206;2022-08-21T10:19:25;27.80;97.10
16995;DHT22;8614;48.522;9.206;2022-08-21T10:22:01;27.50;97.60
16995;DHT22;8614;48.522;9.206;2022-08-21T10:24:32;27.20;97.70
16995;DHT22;8614;48.522;9.206;2022-08-21T10:27:10;27.20;98.90
16995;DHT22;8614;48.522;9.206;2022-08-21T10:29:45;27.30;98.60
16995;DHT22;8614;48.522;9.206;2022-08-21T10:32:31;27.40;98.70
16995;DHT22;8614;48.522;9.206;2022-08-21T10:35:12;27.30;99.40
16995;DHT22;8614;48.522;9.206;2022-08-21T10:37:47;27.00;98.50
16995;DHT22;8614;48.522;9.206;2022-08-21T10:40:21;26.90;98.60
16995;DHT22;8614;48.522;9.206;2022-08-21T10:42:59;26.90;99.60
16995;DHT22;8614;48.522;9.206;2022-08-21T10:45:39;26.70;99.40
16995;DHT22;8614;48.522;9.206;2022-08-21T10:48:19;26.80;99.60
16995;DHT22;8614;48.522;9.206;2022-08-21T10:50:54;26.80;99.90
16995;DHT22;8614;48.522;9.206;2022-08-21T10:53:45;26.60;99.40
16995;DHT22;8614;48.522;9.206;2022-08-21T10:56:22;26.20;98.70
16995;DHT22;8614;48.522;9.206;2022-08-21T10:59:18;26.10;99.30
16995;DHT22;8614;48.522;9.206;2022-08-21T11:01:49;25.80;97.40
16995;DHT22;8614;48.522;9.206;2022-08-21T11:04:20;25.50;97.70
16995;DHT22;8614;48.522;9.206;2022-08-21T11:06:59;25.40;98.50
16995;DHT22;8614;48.522;9.206;2022-08-21T11:09:28;25.70;99.00
16995;DHT22;8614;48.522;9.206;2022-08-21T11:11:58;25.60;97.70
16995;DHT22;8614;48.522;9.206;2022-08-21T11:14:34;25.70;98.50
16995;DHT22;8614;48.522;9.206;2022-08-21T11:17:07;25.70;98.60
16995;DHT22;8614;48.522;9.206;2022-08-21T11:19:40;25.90;98.40
16995;DHT22;8614;48.522;9.206;2022-08-21T11:22:15;25.90;98.30
16995;DHT22;8614;48.522;9.206;2022-08-21T11:24:47;25.80;98.20
16995;DHT22;8614;48.522;9.206;2022-08-21T11:27:21;25.30;96.80
16995;DHT22;8614;48.522;9.206;2022-08-21T11:29:53;25.20;97.90
16995;DHT22;8614;48.522;9.206;2022-08-21T11:32:36;25.30;97.90
16995;DHT22;8614;48.522;9.206;2022-08-21T11:35:12;25.20;98.50
16995;DHT22;8614;48.522;9.206;2022-08-21T11:37:50;25.50;99.40
16995;DHT22;8614;48.522;9.206;2022-08-21T11:40:36;25.60;97.90
16995;DHT22;8614;48.522;9.206;2022-08-21T11:43:11;25.60;97.70
16995;DHT22;8614;48.522;9.206;2022-08-21T11:45:45;25.60;98.10
16995;DHT22;8614;48.522;9.206;2022-08-21T11:48:29;25.50;98.00
16995;DHT22;8614;48.522;9.206;2022-08-21T11:50:59;25.40;97.20
16995;DHT22;8614;48.522;9.206;2022-08-21T11:53:33;25.50;98.60
16995;DHT22;8614;48.522;9.206;2022-08-21T11:56:06;25.40;97.50
16995;DHT22;8614;48.522;9.206;2022-08-21T11:58:38;25.50;98.60
16995;DHT22;8614;48.522;9.206;2022-08-21T12:01:08;25.40;98.00
16995;DHT22;8614;48.522;9.206;2022-08-21T12:03:38;25.40;97.30
16995;DHT22;8614;48.522;9.206;2022-08-21T12:06:08;25.30;97.50
16995;DHT22;8614;48.522;9.206;2022-08-21T12:08:36;25.30;97.20
16995;DHT22;8614;48.522;9.206;2022-08-21T12:11:07;25.20;97.00
16995;DHT22;8614;48.522;9.206;2022-08-21T12:13:36;25.10;97.30
16995;DHT22;8614;48.522;9.206;2022-08-21T12:16:09;25.10;97.90
16995;DHT22;8614;48.522;9.206;2022-08-21T12:18:37;25.10;97.90
16995;DHT22;8614;48.522;9.206;2022-08-21T12:21:17;25.10;98.00
16995;DHT22;8614;48.522;9.206;2022-08-21T12:23:48;25.20;97.80
16995;DHT22;8614;48.522;9.206;2022-08-21T12:26:27;25.20;97.10
16995;DHT22;8614;48.522;9.206;2022-08-21T12:29:20;25.10;97.00
16995;DHT22;8614;48.522;9.206;2022-08-21T12:31:55;25.10;98.30
16995;DHT22;8614;48.522;9.206;2022-08-21T12:34:25;25.10;98.40
16995;DHT22;8614;48.522;9.206;2022-08-21T12:36:57;25.10;97.60
16995;DHT22;8614;48.522;9.206;2022-08-21T12:39:26;24.90;97.40
16995;DHT22;8614;48.522;9.206;2022-08-21T12:41:59;24.90;98.50
16995;DHT22;8614;48.522;9.206;2022-08-21T12:44:34;25.10;98.90
16995;DHT22;8614;48.522;9.206;2022-08-21T12:47:04;25.10;97.80
16995;DHT22;8614;48.522;9.206;2022-08-21T12:49:36;25.20;98.30
16995;DHT22;8614;48.522;9.206;2022-08-21T12:52:11;25.20;97.50
16995;DHT22;8614;48.522;9.206;2022-08-21T12:54:41;25.20;98.00
16995;DHT22;8614;48.522;9.206;2022-08-21T12:57:19;25.20;97.90
16995;DHT22;8614;48.522;9.206;2022-08-21T12:59:52;25.20;97.80
16995;DHT22;8614;48.522;9.206;2022-08-21T13:02:23;25.30;98.30
16995;DHT22;8614;48.522;9.206;2022-08-21T13:04:51;25.30;97.90
16995;DHT22;8614;48.522;9.206;2022-08-21T13:07:25;25.30;97.20
16995;DHT22;8614;48.522;9.206;2022-08-21T13:09:56;25.10;97.50
16995;DHT22;8614;48.522;9.206;2022-08-21T13:12:25;25.10;97.70
16995;DHT22;8614;48.522;9.206;2022-08-21T13:14:56;25.20;98.10
16995;DHT22;8614;48.522;9.206;2022-08-21T13:17:26;25.10;97.90
16995;DHT22;8614;48.522;9.206;2022-08-21T13:19:58;25.10;97.70
16995;DHT22;8614;48.522;9.206;2022-08-21T13:22:26;25.10;97.30
16995;DHT22;8614;48.522;9.206;2022-08-21T13:24:54;25.00;97.90
16995;DHT22;8614;48.522;9.206;2022-08-21T13:27:25;24.90;97.80
16995;DHT22;8614;48.522;9.206;2022-08-21T13:30:05;24.90;98.70
16995;DHT22;8614;48.522;9.206;2022-08-21T13:32:34;24.90;97.10
16995;DHT22;8614;48.522;9.206;2022-08-21T13:35:24;24.90;97.60
16995;DHT22;8614;48.522;9.206;2022-08-21T13:37:53;24.90;97.90
16995;DHT22;8614;48.522;9.206;2022-08-21T13:40:28;25.00;97.20
16995;DHT22;8614;48.522;9.206;2022-08-21T13:42:56;25.00;96.50
16995;DHT22;8614;48.522;9.206;2022-08-21T13:45:26;25.00;97.80
16995;DHT22;8614;48.522;9.206;2022-08-21T13:47:53;25.00;96.80
16995;DHT22;8614;48.522;9.206;2022-08-21T13:50:22;25.10;96.90
16995;DHT22;8614;48.522;9.206;2022-08-21T13:52:59;25.20;96.70
16995;DHT22;8614;48.522;9.206;2022-08-21T13:55:36;25.20;96.60
16995;DHT22;8614;48.522;9.206;2022-08-21T13:58:06;25.20;96.50
16995;DHT22;8614;48.522;9.206;2022-08-21T14:00:37;25.20;96.60
16995;DHT22;8614;48.522;9.206;2022-08-21T14:03:11;25.20;97.10
16995;DHT22;8614;48.522;9.206;2022-08-21T14:05:45;25.20;96.60
16995;DHT22;8614;48.522;9.206;2022-08-21T14:08:19;25.20;96.10
16995;DHT22;8614;48.522;9.206;2022-08-21T14:10:50;25.30;96.50
16995;DHT22;8614;48.522;9.206;2022-08-21T14:13:29;25.20;96.20
16995;DHT22;8614;48.522;9.206;2022-08-21T14:16:01;25.30;96.90
16995;DHT22;8614;48.522;9.206;2022-08-21T14:18:29;25.20;96.00
16995;DHT22;8614;48.522;9.206;2022-08-21T14:21:05;25.30;96.30
16995;DHT22;8614;48.522;9.206;2022-08-21T14:23:32;25.30;94.90
16995;DHT22;8614;48.522;9.206;2022-08-21T14:26:00;25.40;93.90
16995;DHT22;8614;48.522;9.206;2022-08-21T14:28:31;25.40;93.70
16995;DHT22;8614;48.522;9.206;2022-08-21T14:31:11;25.40;94.50
16995;DHT22;8614;48.522;9.206;2022-08-21T14:33:38;25.30;94.90
16995;DHT22;8614;48.522;9.206;2022-08-21T14:36:06;25.40;94.90
16995;DHT22;8614;48.522;9.206;2022-08-21T14:38:35;25.30;95.10
16995;DHT22;8614;48.522;9.206;2022-08-21T14:41:08;25.40;94.50
16995;DHT22;8614;48.522;9.206;2022-08-21T14:43:37;25.40;94.40
16995;DHT22;8614;48.522;9.206;2022-08-21T14:46:04;25.50;94.60
16995;DHT22;8614;48.522;9.206;2022-08-21T14:48:31;25.50;94.90
16995;DHT22;8614;48.522;9.206;2022-08-21T14:50:58;25.50;94.80
16995;DHT22;8614;48.522;9.206;2022-08-21T14:53:25;25.50;94.20
16995;DHT22;8614;48.522;9.206;2022-08-21T14:55:51;25.50;94.10
16995;DHT22;8614;48.522;9.206;2022-08-21T14:58:35;25.50;94.80
16995;DHT22;8614;48.522;9.206;2022-08-21T15:01:05;25.50;94.60
16995;DHT22;8614;48.522;9.206;2022-08-21T15:03:32;25.50;94.60
16995;DHT22;8614;48.522;9.206;2022-08-21T15:06:00;25.50;93.50
16995;DHT22;8614;48.522;9.206;2022-08-21T15:08:27;25.50;94.60
16995;DHT22;8614;48.522;9.206;2022-08-21T15:10:54;25.50;94.30
16995;DHT22;8614;48.522;9.206;2022-08-21T15:13:22;25.50;94.30
16995;DHT22;8614;48.522;9.206;2022-08-21T15:15:50;25.50;94.20
16995;DHT22;8614;48.522;9.206;2022-08-21T15:18:19;25.50;94.30
16995;DHT22;8614;48.522;9.206;2022-08-21T15:20:47;25.50;93.80
16995;DHT22;8614;48.522;9.206;2022-08-21T15:23:14;25.50;94.50
16995;DHT22;8614;48.522;9.206;2022-08-21T15:25:42;25.40;94.60
16995;DHT22;8614;48.522;9.206;2022-08-21T15:28:10;25.30;94.50
16995;DHT22;8614;48.522;9.206;2022-08-21T15:30:38;25.30;94.30
16995;DHT22;8614;48.522;9.206;2022-08-21T15:33:06;25.30;94.40
16995;DHT22;8614;48.522;9.206;2022-08-21T15:35:37;25.30;95.10
16995;DHT22;8614;48.522;9.206;2022-08-21T15:38:05;25.30;94.30
16995;DHT22;8614;48.522;9.206;2022-08-21T15:40:33;25.30;95.30
16995;DHT22;8614;48.522;9.206;2022-08-21T15:43:03;25.30;95.00
16995;DHT22;8614;48.522;9.206;2022-08-21T15:45:30;25.30;95.50
16995;DHT22;8614;48.522;9.206;2022-08-21T15:47:57;25.30;94.50
16995;DHT22;8614;48.522;9.206;2022-08-21T15:50:25;25.30;94.00
16995;DHT22;8614;48.522;9.206;2022-08-21T15:52:53;25.30;94.20
16995;DHT22;8614;48.522;9.206;2022-08-21T15:55:20;25.30;94.20
16995;DHT22;8614;48.522;9.206;2022-08-21T15:57:51;25.30;94.20
16995;DHT22;8614;48.522;9.206;2022-08-21T16:00:21;25.30;93.80
16995;DHT22;8614;48.522;9.206;2022-08-21T16:02:51;25.30;94.30